sensor_id;sensor_type;location;lat;lon;timestamp;pressure;altitude;pressure_sealevel;temperature;humidity
84779;BME280;75010;50.866;20.620;2024-03-02T00:00:19;984;;;7.7;93
84779;BME280;75010;50.866;20.620;2024-03-02T00:10:14;984;;;7.8;93
84779;BME280;75010;50.866;20.620;2024-03-02T00:20:09;984;;;7.8;93
84779;BME280;75010;50.866;20.620;2024-03-02T00:30:57;984;;;7.8;93
84779;BME280;75010;50.866;20.620;2024-03-02T00:40:06;984;;;7.8;93
84779;BME280;75010;50.866;20.620;2024-03-02T00:50:13;984;;;7.9;93
84779;BME280;75010;50.866;20.620;2024-03-02T01:00:20;984;;;7.9;93
84779;BME280;75010;50.866;20.620;2024-03-02T01:10:05;984;;;8;92
84779;BME280;75010;50.866;20.620;2024-03-02T01:20:03;984;;;8;92
84779;BME280;75010;50.866;20.620;2024-03-02T01:30:12;984;;;8;92
84779;BME280;75010;50.866;20.620;2024-03-02T01:40:12;984;;;7.7;92
84779;BME280;75010;50.866;20.620;2024-03-02T01:50:14;984;;;7.7;92
84779;BME280;75010;50.866;20.620;2024-03-02T02:00:06;984;;;7.3;93
84779;BME280;75010;50.866;20.620;2024-03-02T02:10:12;984;;;7.3;93
84779;BME280;75010;50.866;20.620;2024-03-02T02:20:07;983;;;7;95
84779;BME280;75010;50.866;20.620;2024-03-02T02:30:23;983;;;7;95
84779;BME280;75010;50.866;20.620;2024-03-02T02:40:20;983;;;6.9;96
84779;BME280;75010;50.866;20.620;2024-03-02T02:50:04;983;;;7;96
84779;BME280;75010;50.866;20.620;2024-03-02T03:00:16;983;;;7;96
84779;BME280;75010;50.866;20.620;2024-03-02T03:10:05;983;;;7.2;96
84779;BME280;75010;50.866;20.620;2024-03-02T03:20:12;983;;;7.2;96
84779;BME280;75010;50.866;20.620;2024-03-02T03:30:14;983;;;7.5;95
84779;BME280;75010;50.866;20.620;2024-03-02T03:40:15;983;;;7.5;95
84779;BME280;75010;50.866;20.620;2024-03-02T03:50:16;983;;;7.7;93
84779;BME280;75010;50.866;20.620;2024-03-02T04:00:18;983;;;7.7;93
84779;BME280;75010;50.866;20.620;2024-03-02T04:10:06;983;;;7.7;93
84779;BME280;75010;50.866;20.620;2024-03-02T04:20:08;983;;;7.7;93
84779;BME280;75010;50.866;20.620;2024-03-02T04:30:10;983;;;7.7;93
84779;BME280;75010;50.866;20.620;2024-03-02T04:40:12;982;;;7.7;92
84779;BME280;75010;50.866;20.620;2024-03-02T04:50:14;982;;;7.7;92
84779;BME280;75010;50.866;20.620;2024-03-02T05:00:09;983;;;7.5;93
84779;BME280;75010;50.866;20.620;2024-03-02T05:10:10;983;;;7.5;93
84779;BME280;75010;50.866;20.620;2024-03-02T05:20:03;983;;;7.3;94
84779;BME280;75010;50.866;20.620;2024-03-02T05:30:16;983;;;7.4;95
84779;BME280;75010;50.866;20.620;2024-03-02T05:40:18;983;;;7.4;95
84779;BME280;75010;50.866;20.620;2024-03-02T05:50:11;983;;;7.6;94
84779;BME280;75010;50.866;20.620;2024-03-02T06:00:10;983;;;7.6;94
84779;BME280;75010;50.866;20.620;2024-03-02T06:10:14;983;;;7.8;94
84779;BME280;75010;50.866;20.620;2024-03-02T06:20:05;983;;;7.8;94
84779;BME280;75010;50.866;20.620;2024-03-02T06:30:12;983;;;8;92
84779;BME280;75010;50.866;20.620;2024-03-02T06:40:13;983;;;8;92
84779;BME280;75010;50.866;20.620;2024-03-02T06:50:12;983;;;8.3;91
84779;BME280;75010;50.866;20.620;2024-03-02T07:00:03;983;;;8.3;91
84779;BME280;75010;50.866;20.620;2024-03-02T07:10:10;983;;;8.6;89
84779;BME280;75010;50.866;20.620;2024-03-02T07:20:08;983;;;8.7;90
84779;BME280;75010;50.866;20.620;2024-03-02T07:30:17;983;;;8.7;90
84779;BME280;75010;50.866;20.620;2024-03-02T07:40:08;983;;;8.8;88
84779;BME280;75010;50.866;20.620;2024-03-02T07:50:16;983;;;8.8;88
84779;BME280;75010;50.866;20.620;2024-03-02T08:00:18;983;;;9;88
84779;BME280;75010;50.866;20.620;2024-03-02T08:10:15;983;;;9;88
84779;BME280;75010;50.866;20.620;2024-03-02T08:20:12;983;;;9.4;86
84779;BME280;75010;50.866;20.620;2024-03-02T08:30:20;983;;;9.4;86
84779;BME280;75010;50.866;20.620;2024-03-02T08:40:14;984;;;10;83
84779;BME280;75010;50.866;20.620;2024-03-02T08:50:14;983;;;10.2;81
84779;BME280;75010;50.866;20.620;2024-03-02T09:00:03;983;;;10.2;81
84779;BME280;75010;50.866;20.620;2024-03-02T09:10:06;983;;;10.4;80
84779;BME280;75010;50.866;20.620;2024-03-02T09:20:08;983;;;10.4;80
84779;BME280;75010;50.866;20.620;2024-03-02T09:30:08;984;;;10.5;79
84779;BME280;75010;50.866;20.620;2024-03-02T09:40:17;984;;;10.5;79
84779;BME280;75010;50.866;20.620;2024-03-02T09:50:13;984;;;10.7;77
84779;BME280;75010;50.866;20.620;2024-03-02T10:00:16;984;;;10.7;77
84779;BME280;75010;50.866;20.620;2024-03-02T10:10:22;984;;;10.9;76
84779;BME280;75010;50.866;20.620;2024-03-02T10:20:25;984;;;11.6;75
84779;BME280;75010;50.866;20.620;2024-03-02T10:30:11;984;;;11.6;75
84779;BME280;75010;50.866;20.620;2024-03-02T10:40:18;984;;;12.1;74
84779;BME280;75010;50.866;20.620;2024-03-02T10:50:13;984;;;12.1;74
84779;BME280;75010;50.866;20.620;2024-03-02T11:00:18;984;;;12.8;69
84779;BME280;75010;50.866;20.620;2024-03-02T11:10:18;984;;;12.8;69
84779;BME280;75010;50.866;20.620;2024-03-02T11:20:10;984;;;13.4;67
84779;BME280;75010;50.866;20.620;2024-03-02T11:30:06;984;;;13.4;67
84779;BME280;75010;50.866;20.620;2024-03-02T11:40:13;984;;;14;66
84779;BME280;75010;50.866;20.620;2024-03-02T11:50:03;984;;;14;66
84779;BME280;75010;50.866;20.620;2024-03-02T12:00:27;984;;;14.4;64
84779;BME280;75010;50.866;20.620;2024-03-02T12:10:09;983;;;14.7;63
84779;BME280;75010;50.866;20.620;2024-03-02T12:20:07;983;;;14.7;63
84779;BME280;75010;50.866;20.620;2024-03-02T12:30:04;983;;;15.1;61
84779;BME280;75010;50.866;20.620;2024-03-02T12:40:04;983;;;15.1;61
84779;BME280;75010;50.866;20.620;2024-03-02T12:50:14;983;;;14.9;62
84779;BME280;75010;50.866;20.620;2024-03-02T13:00:13;983;;;15.4;60
84779;BME280;75010;50.866;20.620;2024-03-02T13:10:15;983;;;15.4;60
84779;BME280;75010;50.866;20.620;2024-03-02T13:20:19;983;;;15.3;61
84779;BME280;75010;50.866;20.620;2024-03-02T13:30:06;983;;;15.3;61
84779;BME280;75010;50.866;20.620;2024-03-02T13:40:07;983;;;15.3;60
84779;BME280;75010;50.866;20.620;2024-03-02T13:50:07;983;;;15.3;60
84779;BME280;75010;50.866;20.620;2024-03-02T14:00:15;983;;;15.4;60
84779;BME280;75010;50.866;20.620;2024-03-02T14:10:07;983;;;15.4;60
84779;BME280;75010;50.866;20.620;2024-03-02T14:20:16;983;;;15.7;60
84779;BME280;75010;50.866;20.620;2024-03-02T14:30:15;983;;;15.7;60
84779;BME280;75010;50.866;20.620;2024-03-02T14:40:15;983;;;15.6;59
84779;BME280;75010;50.866;20.620;2024-03-02T14:50:03;983;;;15.2;60
84779;BME280;75010;50.866;20.620;2024-03-02T15:00:19;983;;;15.2;60
84779;BME280;75010;50.866;20.620;2024-03-02T15:10:15;983;;;15.3;60
84779;BME280;75010;50.866;20.620;2024-03-02T15:20:13;983;;;15.3;60
84779;BME280;75010;50.866;20.620;2024-03-02T15:30:16;983;;;14.5;63
84779;BME280;75010;50.866;20.620;2024-03-02T15:40:14;983;;;14.5;63
84779;BME280;75010;50.866;20.620;2024-03-02T15:50:20;983;;;13.4;67
84779;BME280;75010;50.866;20.620;2024-03-02T16:00:18;983;;;13.4;67
84779;BME280;75010;50.866;20.620;2024-03-02T16:10:14;983;;;12.6;70
84779;BME280;75010;50.866;20.620;2024-03-02T16:20:02;983;;;11.9;74
84779;BME280;75010;50.866;20.620;2024-03-02T16:30:12;983;;;11.9;74
84779;BME280;75010;50.866;20.620;2024-03-02T16:40:10;983;;;11.5;76
84779;BME280;75010;50.866;20.620;2024-03-02T16:50:18;983;;;11.5;76
84779;BME280;75010;50.866;20.620;2024-03-02T17:00:13;983;;;11;78
84779;BME280;75010;50.866;20.620;2024-03-02T17:10:11;983;;;11;78
84779;BME280;75010;50.866;20.620;2024-03-02T17:20:17;983;;;10.7;80
84779;BME280;75010;50.866;20.620;2024-03-02T17:30:05;983;;;10.7;80
84779;BME280;75010;50.866;20.620;2024-03-02T17:40:03;983;;;10.4;82
84779;BME280;75010;50.866;20.620;2024-03-02T17:50:07;983;;;10.4;82
84779;BME280;75010;50.866;20.620;2024-03-02T18:00:09;984;;;10.2;83
84779;BME280;75010;50.866;20.620;2024-03-02T18:10:07;983;;;10.1;84
84779;BME280;75010;50.866;20.620;2024-03-02T18:20:06;983;;;10.1;84
84779;BME280;75010;50.866;20.620;2024-03-02T18:30:20;984;;;9.9;85
84779;BME280;75010;50.866;20.620;2024-03-02T18:40:07;984;;;9.9;85
84779;BME280;75010;50.866;20.620;2024-03-02T18:50:04;984;;;9.7;86
84779;BME280;75010;50.866;20.620;2024-03-02T19:00:18;984;;;9.7;86
84779;BME280;75010;50.866;20.620;2024-03-02T19:10:15;984;;;9.7;87
84779;BME280;75010;50.866;20.620;2024-03-02T19:20:14;984;;;9.6;87
84779;BME280;75010;50.866;20.620;2024-03-02T19:30:15;984;;;9.6;87
84779;BME280;75010;50.866;20.620;2024-03-02T19:40:15;984;;;9.5;87
84779;BME280;75010;50.866;20.620;2024-03-02T19:50:18;984;;;9.5;87
84779;BME280;75010;50.866;20.620;2024-03-02T20:00:19;984;;;9.4;88
84779;BME280;75010;50.866;20.620;2024-03-02T20:10:19;984;;;9.4;88
84779;BME280;75010;50.866;20.620;2024-03-02T20:20:08;984;;;9.3;88
84779;BME280;75010;50.866;20.620;2024-03-02T20:30:08;984;;;9.3;88
84779;BME280;75010;50.866;20.620;2024-03-02T20:40:03;984;;;9.3;88
84779;BME280;75010;50.866;20.620;2024-03-02T20:50:11;984;;;9.3;88
84779;BME280;75010;50.866;20.620;2024-03-02T21:00:09;984;;;9.3;88
84779;BME280;75010;50.866;20.620;2024-03-02T21:10:11;983;;;9.3;87
84779;BME280;75010;50.866;20.620;2024-03-02T21:20:16;983;;;9.3;87
84779;BME280;75010;50.866;20.620;2024-03-02T21:30:11;983;;;9.2;88
84779;BME280;75010;50.866;20.620;2024-03-02T21:40:12;983;;;9.2;88
84779;BME280;75010;50.866;20.620;2024-03-02T21:50:13;984;;;9;88
84779;BME280;75010;50.866;20.620;2024-03-02T22:00:15;984;;;9;88
84779;BME280;75010;50.866;20.620;2024-03-02T22:10:03;984;;;8.9;89
84779;BME280;75010;50.866;20.620;2024-03-02T22:20:10;984;;;8.8;89
84779;BME280;75010;50.866;20.620;2024-03-02T22:30:13;984;;;8.8;89
84779;BME280;75010;50.866;20.620;2024-03-02T22:40:08;984;;;8.7;89
84779;BME280;75010;50.866;20.620;2024-03-02T22:50:05;984;;;8.7;89
84779;BME280;75010;50.866;20.620;2024-03-02T23:00:40;983;;;8.5;90
84779;BME280;75010;50.866;20.620;2024-03-02T23:10:09;983;;;8.5;90
84779;BME280;75010;50.866;20.620;2024-03-02T23:20:11;983;;;8.6;90
84779;BME280;75010;50.866;20.620;2024-03-02T23:30:13;983;;;8.6;90
84779;BME280;75010;50.866;20.620;2024-03-02T23:40:03;984;;;8.5;91
84779;BME280;75010;50.866;20.620;2024-03-02T23:50:13;984;;;8.4;91
